createdAt,value
2022-08-04T00:01:24.789Z,1.70
2022-08-04T00:04:01.877Z,1.60
2022-08-04T00:06:40.968Z,1.70
2022-08-04T00:09:14.769Z,1.70
2022-08-04T00:11:47.329Z,2.03
2022-08-04T00:14:16.748Z,1.57
2022-08-04T00:16:49.180Z,1.50
2022-08-04T00:19:22.540Z,1.60
2022-08-04T00:21:56.028Z,1.83
2022-08-04T00:24:24.760Z,1.97
2022-08-04T00:26:55.436Z,2.20
2022-08-04T00:29:23.993Z,1.70
2022-08-04T00:31:56.245Z,1.70
2022-08-04T00:34:27.229Z,1.63
2022-08-04T00:36:56.333Z,1.50
2022-08-04T00:39:25.125Z,1.50
2022-08-04T00:42:29.878Z,1.90
2022-08-04T00:45:14.055Z,1.40
2022-08-04T00:47:59.007Z,1.70
2022-08-04T00:50:34.688Z,1.90
2022-08-04T00:53:07.940Z,1.60
2022-08-04T00:55:54.132Z,1.80
2022-08-04T00:58:32.515Z,1.90
2022-08-04T01:01:03.103Z,2.00
2022-08-04T01:03:43.655Z,2.00
2022-08-04T01:06:19.305Z,1.83
2022-08-04T01:08:56.241Z,1.50
2022-08-04T01:11:57.437Z,1.90
2022-08-04T01:14:45.412Z,1.60
2022-08-04T01:17:21.705Z,1.57
2022-08-04T01:19:57.210Z,1.57
2022-08-04T01:22:51.083Z,2.10
2022-08-04T01:25:43.253Z,2.00
2022-08-04T01:28:30.220Z,1.90
2022-08-04T01:31:12.950Z,1.63
2022-08-04T01:34:03.023Z,1.77
2022-08-04T01:36:35.047Z,1.87
2022-08-04T01:39:24.828Z,2.00
2022-08-04T01:41:58.477Z,1.70
2022-08-04T01:44:29.514Z,1.97
2022-08-04T01:47:01.331Z,1.80
2022-08-04T01:49:32.178Z,2.00
2022-08-04T01:52:11.180Z,2.07
2022-08-04T01:54:42.033Z,2.13
2022-08-04T01:57:38.712Z,1.90
2022-08-04T02:00:00.873Z,2.20
2022-08-04T02:02:30.266Z,1.93
2022-08-04T02:04:58.312Z,2.33
2022-08-04T02:07:38.638Z,1.90
2022-08-04T02:10:08.950Z,2.10
2022-08-04T02:12:52.141Z,2.07
2022-08-04T02:15:29.185Z,2.00
2022-08-04T02:18:05.344Z,2.23
2022-08-04T02:20:36.404Z,1.90
2022-08-04T02:23:06.630Z,1.90
2022-08-04T02:25:39.078Z,2.00
2022-08-04T02:28:16.831Z,1.83
2022-08-04T02:30:55.294Z,2.10
2022-08-04T02:33:34.960Z,1.60
2022-08-04T02:36:05.818Z,2.23
2022-08-04T02:38:48.557Z,2.23
2022-08-04T02:41:18.270Z,2.00
2022-08-04T02:43:51.362Z,2.23
2022-08-04T02:46:22.492Z,2.00
2022-08-04T02:48:52.988Z,2.03
2022-08-04T02:51:25.001Z,1.80
2022-08-04T02:53:55.294Z,2.30
2022-08-04T02:56:25.082Z,2.10
2022-08-04T02:58:57.279Z,1.70
2022-08-04T03:01:25.335Z,1.90
2022-08-04T03:04:24.812Z,2.00
2022-08-04T03:07:35.755Z,2.00
2022-08-04T03:10:31.100Z,2.60
2022-08-04T03:13:27.393Z,1.47
2022-08-04T03:16:10.285Z,3.13
2022-08-04T03:19:27.482Z,2.10
2022-08-04T03:22:22.557Z,2.10
2022-08-04T03:25:24.925Z,1.90
2022-08-04T03:28:30.929Z,2.03
2022-08-04T03:31:23.498Z,2.03
2022-08-04T03:34:08.158Z,2.13
2022-08-04T03:37:12.824Z,2.30
2022-08-04T03:40:16.384Z,1.97
2022-08-04T03:43:58.699Z,2.33
2022-08-04T03:46:42.137Z,1.80
2022-08-04T03:49:49.371Z,1.73
2022-08-04T03:52:54.649Z,2.10
2022-08-04T03:55:39.846Z,1.93
2022-08-04T03:58:34.040Z,2.23
2022-08-04T04:01:13.658Z,2.20
2022-08-04T04:04:04.518Z,2.30
2022-08-04T04:06:54.597Z,2.20
2022-08-04T04:09:52.952Z,2.40
2022-08-04T04:12:52.836Z,2.20
2022-08-04T04:15:49.918Z,2.43
2022-08-04T04:18:29.197Z,2.63
2022-08-04T04:21:28.813Z,2.20
2022-08-04T04:24:33.677Z,1.83
2022-08-04T04:27:13.609Z,2.17
2022-08-04T04:30:09.757Z,2.70
2022-08-04T04:33:19.974Z,2.00
2022-08-04T04:35:59.910Z,2.73
2022-08-04T04:38:58.829Z,2.40
2022-08-04T04:41:58.823Z,2.83
2022-08-04T04:44:48.565Z,1.97
2022-08-04T04:48:07.254Z,2.00
2022-08-04T04:50:17.308Z,2.40
2022-08-04T04:52:50.566Z,2.10
2022-08-04T04:55:22.351Z,2.97
2022-08-04T04:57:55.286Z,3.70
2022-08-04T05:00:27.255Z,2.97
2022-08-04T05:03:30.693Z,2.40
2022-08-04T05:06:22.778Z,2.77
2022-08-04T05:09:16.821Z,2.60
2022-08-04T05:12:06.113Z,2.60
2022-08-04T05:14:56.281Z,2.73
2022-08-04T05:17:28.757Z,2.30
2022-08-04T05:20:02.687Z,2.60
2022-08-04T05:22:35.343Z,2.57
2022-08-04T05:25:07.308Z,3.03
2022-08-04T05:27:41.090Z,2.90
2022-08-04T05:30:12.780Z,3.13
2022-08-04T05:32:48.907Z,2.80
2022-08-04T05:35:47.929Z,2.53
2022-08-04T05:38:20.057Z,2.37
2022-08-04T05:40:48.569Z,2.63
2022-08-04T05:43:17.770Z,2.43
2022-08-04T05:45:49.220Z,2.53
2022-08-04T05:48:17.488Z,2.60
2022-08-04T05:50:47.017Z,2.57
2022-08-04T05:53:17.841Z,3.10
2022-08-04T05:55:48.938Z,3.10
2022-08-04T05:58:30.181Z,2.73
2022-08-04T06:01:00.542Z,4.13
2022-08-04T06:03:30.040Z,2.73
2022-08-04T06:05:59.451Z,2.57
2022-08-04T06:08:27.488Z,3.27
2022-08-04T06:10:58.394Z,2.93
2022-08-04T06:13:48.488Z,2.57
2022-08-04T06:16:30.138Z,2.33
2022-08-04T06:20:01.199Z,2.70
2022-08-04T06:21:52.234Z,2.70
2022-08-04T06:24:23.683Z,2.70
2022-08-04T06:26:52.757Z,3.27
2022-08-04T06:29:26.863Z,2.87
2022-08-04T06:32:30.565Z,2.80
2022-08-04T06:34:48.480Z,2.63
2022-08-04T06:37:41.332Z,2.50
2022-08-04T06:40:29.439Z,2.63
2022-08-04T06:42:57.445Z,2.80
2022-08-04T06:45:26.459Z,2.70
2022-08-04T06:47:57.092Z,2.70
2022-08-04T06:51:27.926Z,2.73
2022-08-04T06:53:13.674Z,2.73
2022-08-04T06:55:43.550Z,2.43
2022-08-04T06:58:12.280Z,3.00
2022-08-04T07:00:41.907Z,2.47
2022-08-04T07:03:12.468Z,2.60
2022-08-04T07:05:41.901Z,2.43
2022-08-04T07:08:12.090Z,2.57
2022-08-04T07:10:41.557Z,3.00
2022-08-04T07:13:10.435Z,3.00
2022-08-04T07:15:42.199Z,2.70
2022-08-04T07:18:11.534Z,3.10
2022-08-04T07:20:42.913Z,2.90
2022-08-04T07:23:12.827Z,2.73
2022-08-04T07:26:00.066Z,2.70
2022-08-04T07:28:30.997Z,2.43
2022-08-04T07:30:59.672Z,2.37
2022-08-04T07:33:29.937Z,2.60
2022-08-04T07:36:05.518Z,2.70
2022-08-04T07:38:46.420Z,3.00
2022-08-04T07:41:40.358Z,2.70
2022-08-04T07:44:09.415Z,3.07
2022-08-04T07:46:38.068Z,2.60
2022-08-04T07:49:08.097Z,3.10
2022-08-04T07:51:38.110Z,3.00
2022-08-04T07:54:09.119Z,2.87
2022-08-04T07:56:39.338Z,3.20
2022-08-04T07:59:07.621Z,3.97
2022-08-04T08:01:37.054Z,3.23
2022-08-04T08:04:08.397Z,3.33
2022-08-04T08:06:42.720Z,3.03
2022-08-04T08:09:14.349Z,3.07
2022-08-04T08:12:35.764Z,3.10
2022-08-04T08:14:32.434Z,3.03
2022-08-04T08:17:01.419Z,3.50
2022-08-04T08:19:30.887Z,3.30
2022-08-04T08:22:00.788Z,3.27
2022-08-04T08:24:30.430Z,3.40
2022-08-04T08:26:58.571Z,3.37
2022-08-04T08:29:27.782Z,3.07
2022-08-04T08:32:00.422Z,3.43
2022-08-04T08:34:34.818Z,3.13
2022-08-04T08:37:10.704Z,2.70
2022-08-04T08:39:43.581Z,2.73
2022-08-04T08:42:37.781Z,2.70
2022-08-04T08:45:34.944Z,2.77
2022-08-04T08:48:22.473Z,2.70
2022-08-04T08:51:11.338Z,3.07
2022-08-04T08:54:09.477Z,3.27
2022-08-04T08:56:46.048Z,2.50
2022-08-04T08:59:40.237Z,2.30
2022-08-04T09:02:46.106Z,2.40
2022-08-04T09:05:29.754Z,2.23
2022-08-04T09:08:15.472Z,2.30
2022-08-04T09:10:47.489Z,2.60
2022-08-04T09:13:24.413Z,2.37
2022-08-04T09:15:58.747Z,2.20
2022-08-04T09:18:31.932Z,2.40
2022-08-04T09:21:05.269Z,2.10
2022-08-04T09:23:44.889Z,2.10
2022-08-04T09:26:20.046Z,2.10
2022-08-04T09:28:55.634Z,2.33
2022-08-04T09:31:51.749Z,2.17
2022-08-04T09:34:27.542Z,2.13
2022-08-04T09:37:10.477Z,2.60
2022-08-04T09:40:02.956Z,2.20
2022-08-04T09:42:42.445Z,2.60
2022-08-04T09:45:22.466Z,2.17
2022-08-04T09:47:58.426Z,2.10
2022-08-04T09:50:34.644Z,2.37
2022-08-04T09:53:14.224Z,2.73
2022-08-04T09:55:59.885Z,1.87
2022-08-04T09:58:44.730Z,2.20
2022-08-04T10:01:22.850Z,2.10
2022-08-04T10:03:53.876Z,2.47
2022-08-04T10:06:40.526Z,2.53
2022-08-04T10:09:18.814Z,2.00
2022-08-04T10:11:56.898Z,1.80
2022-08-04T10:14:41.183Z,1.93
2022-08-04T10:17:24.115Z,1.83
2022-08-04T10:20:09.998Z,2.00
2022-08-04T10:23:02.352Z,1.90
2022-08-04T10:26:06.115Z,2.20
2022-08-04T10:28:31.528Z,1.90
2022-08-04T10:31:05.781Z,2.00
2022-08-04T10:33:43.679Z,2.27
2022-08-04T10:36:14.962Z,2.00
2022-08-04T10:38:53.453Z,1.73
2022-08-04T10:41:28.733Z,1.80
2022-08-04T10:44:10.560Z,2.13
2022-08-04T10:46:44.348Z,2.10
2022-08-04T10:49:22.609Z,2.20
2022-08-04T10:51:58.672Z,1.93
2022-08-04T10:54:32.329Z,1.80
2022-08-04T10:57:07.779Z,1.97
2022-08-04T10:59:48.343Z,2.00
2022-08-04T11:02:31.436Z,1.83
2022-08-04T11:05:07.475Z,1.70
2022-08-04T11:07:38.676Z,1.53
2022-08-04T11:10:09.039Z,1.60
2022-08-04T11:12:39.041Z,1.90
2022-08-04T11:15:14.486Z,2.10
2022-08-04T11:17:47.581Z,1.80
2022-08-04T11:20:37.424Z,1.80
2022-08-04T11:23:09.810Z,1.63
2022-08-04T11:25:52.094Z,1.60
2022-08-04T11:28:32.272Z,1.50
2022-08-04T11:31:06.089Z,1.57
2022-08-04T11:33:42.240Z,1.50
2022-08-04T11:36:19.128Z,1.50
2022-08-04T11:38:52.269Z,1.83
2022-08-04T11:41:27.562Z,1.30
2022-08-04T11:44:03.834Z,1.60
2022-08-04T11:46:40.417Z,1.40
2022-08-04T11:49:12.793Z,1.40
2022-08-04T11:51:42.095Z,1.40
2022-08-04T11:54:12.395Z,1.63
2022-08-04T11:56:40.477Z,2.20
2022-08-04T11:59:09.201Z,1.70
2022-08-04T12:01:51.571Z,1.60
2022-08-04T12:04:28.889Z,1.80
2022-08-04T12:07:30.066Z,2.00
2022-08-04T12:09:59.758Z,1.83
2022-08-04T12:12:35.951Z,1.77
2022-08-04T12:15:15.387Z,1.87
2022-08-04T12:17:53.871Z,1.40
2022-08-04T12:20:31.653Z,1.83
2022-08-04T12:23:14.846Z,1.87
2022-08-04T12:25:47.682Z,1.80
2022-08-04T12:28:28.266Z,2.00
2022-08-04T12:31:06.258Z,1.70
2022-08-04T12:34:04.898Z,1.70
2022-08-04T12:36:41.118Z,1.60
2022-08-04T12:39:13.506Z,2.20
2022-08-04T12:41:46.862Z,1.60
2022-08-04T12:44:33.401Z,1.67
2022-08-04T12:47:28.232Z,1.80
2022-08-04T12:50:00.570Z,1.80
2022-08-04T12:53:01.102Z,1.37
2022-08-04T12:55:18.951Z,1.50
2022-08-04T12:57:48.694Z,1.50
2022-08-04T13:00:29.580Z,1.70
2022-08-04T13:03:06.314Z,1.87
2022-08-04T13:05:41.855Z,1.73
2022-08-04T13:08:11.136Z,1.30
2022-08-04T13:10:41.692Z,1.60
2022-08-04T13:13:17.111Z,1.90
2022-08-04T13:15:56.441Z,1.47
2022-08-04T13:18:30.132Z,1.73
2022-08-04T13:21:21.366Z,1.70
2022-08-04T13:24:10.103Z,1.80
2022-08-04T13:26:54.648Z,1.93
2022-08-04T13:29:58.889Z,1.90
2022-08-04T13:32:18.365Z,1.90
2022-08-04T13:34:49.504Z,1.60
2022-08-04T13:37:26.835Z,1.80
2022-08-04T13:39:56.757Z,2.07
2022-08-04T13:42:27.442Z,1.60
2022-08-04T13:44:58.521Z,1.63
2022-08-04T13:47:30.109Z,2.23
2022-08-04T13:50:12.170Z,1.80
2022-08-04T13:52:42.906Z,1.50
2022-08-04T13:55:21.026Z,1.70
2022-08-04T13:57:53.725Z,1.83
2022-08-04T14:00:29.237Z,2.07
2022-08-04T14:03:03.173Z,2.10
2022-08-04T14:05:58.910Z,1.70
2022-08-04T14:08:27.264Z,2.00
2022-08-04T14:10:57.840Z,1.70
2022-08-04T14:13:40.947Z,2.03
2022-08-04T14:16:21.001Z,1.60
2022-08-04T14:18:49.537Z,1.70
2022-08-04T14:21:21.210Z,1.87
2022-08-04T14:23:55.547Z,1.60
2022-08-04T14:26:32.550Z,1.70
2022-08-04T14:29:27.400Z,1.97
2022-08-04T14:32:02.050Z,1.70
2022-08-04T14:34:33.502Z,1.90
2022-08-04T14:37:17.182Z,1.57
2022-08-04T14:40:08.272Z,1.70
2022-08-04T14:42:43.872Z,1.70
2022-08-04T14:45:13.008Z,1.90
2022-08-04T14:47:51.831Z,1.60
2022-08-04T14:50:20.286Z,1.70
2022-08-04T14:52:48.236Z,1.77
2022-08-04T14:55:23.128Z,1.60
2022-08-04T14:58:35.529Z,1.80
2022-08-04T15:00:40.614Z,1.70
2022-08-04T15:03:10.304Z,1.60
2022-08-04T15:06:00.151Z,1.87
2022-08-04T15:08:31.030Z,1.83
2022-08-04T15:11:02.885Z,1.70
2022-08-04T15:13:31.974Z,1.80
2022-08-04T15:16:08.045Z,1.87
2022-08-04T15:18:39.475Z,1.70
2022-08-04T15:21:08.497Z,2.00
2022-08-04T15:23:38.507Z,1.93
2022-08-04T15:26:12.430Z,1.60
2022-08-04T15:28:43.217Z,1.90
2022-08-04T15:32:06.741Z,1.53
2022-08-04T15:34:00.258Z,1.90
2022-08-04T15:36:35.615Z,2.37
2022-08-04T15:39:11.614Z,1.93
2022-08-04T15:41:55.096Z,1.70
2022-08-04T15:44:46.917Z,1.60
2022-08-04T15:47:15.988Z,1.60
2022-08-04T15:49:44.220Z,1.60
2022-08-04T15:52:13.545Z,1.87
2022-08-04T15:54:42.341Z,1.70
2022-08-04T15:58:00.080Z,1.80
2022-08-04T16:00:28.173Z,1.90
2022-08-04T16:02:56.289Z,1.63
2022-08-04T16:05:36.775Z,1.50
2022-08-04T16:08:18.167Z,1.60
2022-08-04T16:10:50.897Z,1.80
2022-08-04T16:13:22.248Z,1.60
2022-08-04T16:15:52.439Z,1.60
2022-08-04T16:18:26.300Z,1.60
2022-08-04T16:20:57.671Z,1.77
2022-08-04T16:23:55.002Z,1.77
2022-08-04T16:26:53.747Z,2.30
2022-08-04T16:29:37.798Z,1.43
2022-08-04T16:32:25.807Z,1.80
2022-08-04T16:34:56.978Z,2.40
2022-08-04T16:37:30.098Z,1.87
2022-08-04T16:40:35.403Z,1.83
2022-08-04T16:43:09.976Z,1.30
2022-08-04T16:45:59.629Z,1.50
2022-08-04T16:48:29.310Z,1.50
2022-08-04T16:51:03.282Z,2.70
2022-08-04T16:53:53.137Z,1.87
2022-08-04T16:56:33.556Z,1.60
2022-08-04T16:59:08.245Z,1.90
2022-08-04T17:01:38.223Z,2.00
2022-08-04T17:04:07.372Z,1.63
2022-08-04T17:06:37.389Z,2.03
2022-08-04T17:09:07.044Z,1.60
2022-08-04T17:11:35.025Z,1.50
2022-08-04T17:14:05.842Z,1.80
2022-08-04T17:16:37.954Z,1.90
2022-08-04T17:19:07.358Z,2.30
2022-08-04T17:21:48.925Z,2.37
2022-08-04T17:24:18.109Z,2.07
2022-08-04T17:26:53.788Z,2.00
2022-08-04T17:29:44.548Z,1.40
2022-08-04T17:32:18.520Z,1.70
2022-08-04T17:34:49.153Z,2.17
2022-08-04T17:37:39.169Z,1.97
2022-08-04T17:40:11.079Z,1.70
2022-08-04T17:42:41.356Z,1.93
2022-08-04T17:48:00.600Z,2.40
2022-08-04T17:50:34.701Z,2.43
2022-08-04T17:53:11.525Z,2.97
2022-08-04T17:55:42.336Z,1.87
2022-08-04T17:58:22.149Z,1.73
2022-08-04T18:03:53.061Z,2.00
2022-08-04T18:06:22.600Z,2.70
2022-08-04T18:08:57.472Z,2.10
2022-08-04T18:11:29.533Z,2.30
2022-08-04T18:14:10.417Z,2.10
2022-08-04T18:16:44.508Z,3.17
2022-08-04T18:19:15.656Z,2.93
2022-08-04T18:22:00.398Z,2.90
2022-08-04T18:24:35.607Z,4.03
2022-08-04T18:27:18.787Z,3.80
2022-08-04T18:30:14.698Z,3.83
2022-08-04T18:32:35.555Z,3.60
2022-08-04T18:35:07.191Z,4.23
2022-08-04T18:38:11.419Z,4.20
2022-08-04T18:40:29.872Z,4.67
2022-08-04T18:43:03.669Z,5.33
2022-08-04T18:45:34.646Z,4.67
2022-08-04T18:48:04.023Z,4.30
2022-08-04T18:51:10.953Z,3.80
2022-08-04T18:53:21.469Z,4.27
2022-08-04T18:55:57.031Z,3.57
2022-08-04T19:01:14.519Z,2.90
2022-08-04T19:03:44.763Z,2.60
2022-08-04T19:06:17.626Z,2.70
2022-08-04T19:08:53.966Z,2.70
2022-08-04T19:11:52.715Z,2.70
2022-08-04T19:14:13.031Z,2.27
2022-08-04T19:16:45.913Z,2.53
2022-08-04T19:19:14.099Z,2.80
2022-08-04T19:21:59.457Z,3.30
2022-08-04T19:24:34.347Z,2.97
2022-08-04T19:27:07.314Z,2.77
2022-08-04T19:29:40.842Z,3.03
2022-08-04T19:32:14.939Z,2.60
2022-08-04T19:34:45.995Z,3.07
2022-08-04T19:37:56.661Z,2.83
2022-08-04T19:40:07.534Z,2.73
2022-08-04T19:42:36.099Z,3.30
2022-08-04T19:45:04.217Z,2.80
2022-08-04T19:48:16.952Z,2.63
2022-08-04T19:50:20.128Z,2.63
2022-08-04T19:52:53.109Z,2.73
2022-08-04T19:55:22.964Z,2.50
2022-08-04T19:58:07.356Z,2.27
2022-08-04T20:00:37.202Z,2.57
2022-08-04T20:03:11.683Z,2.57
2022-08-04T20:05:53.219Z,2.20
2022-08-04T20:08:25.150Z,2.50
2022-08-04T20:10:54.614Z,2.53
2022-08-04T20:13:30.733Z,2.63
2022-08-04T20:16:28.391Z,3.00
2022-08-04T20:18:59.460Z,2.33
2022-08-04T20:21:54.415Z,2.87
2022-08-04T20:24:41.650Z,2.80
2022-08-04T20:27:14.567Z,2.83
2022-08-04T20:29:48.747Z,2.63
2022-08-04T20:32:19.492Z,3.43
2022-08-04T20:34:48.200Z,2.87
2022-08-04T20:37:16.471Z,3.40
2022-08-04T20:39:54.826Z,2.70
2022-08-04T20:42:27.303Z,3.03
2022-08-04T20:45:01.721Z,3.00
2022-08-04T20:47:35.152Z,2.70
2022-08-04T20:50:05.014Z,3.10
2022-08-04T20:52:33.241Z,3.40
2022-08-04T20:55:03.726Z,3.10
2022-08-04T20:57:48.452Z,3.20
2022-08-04T21:00:17.521Z,3.00
2022-08-04T21:02:54.018Z,2.83
2022-08-04T21:05:21.916Z,2.80
2022-08-04T21:07:50.760Z,2.77
2022-08-04T21:10:21.935Z,2.43
2022-08-04T21:12:50.045Z,2.90
2022-08-04T21:15:25.003Z,3.20
2022-08-04T21:17:58.180Z,2.33
2022-08-04T21:20:32.261Z,3.20
2022-08-04T21:23:03.460Z,3.10
2022-08-04T21:25:42.514Z,3.47
2022-08-04T21:28:11.031Z,3.07
2022-08-04T21:30:54.636Z,3.73
2022-08-04T21:33:28.228Z,3.57
2022-08-04T21:36:13.605Z,2.60
2022-08-04T21:38:41.971Z,2.90
2022-08-04T21:41:27.113Z,3.17
2022-08-04T21:43:56.310Z,3.67
2022-08-04T21:46:26.815Z,3.17
2022-08-04T21:48:58.118Z,3.23
2022-08-04T21:51:58.133Z,3.40
2022-08-04T21:54:17.095Z,3.10
2022-08-04T21:56:50.695Z,3.20
2022-08-04T21:59:30.403Z,3.00
2022-08-04T22:02:00.366Z,3.43
2022-08-04T22:04:29.171Z,3.10
2022-08-04T22:06:56.996Z,3.10
2022-08-04T22:09:24.855Z,3.13
2022-08-04T22:11:58.056Z,2.80
2022-08-04T22:14:34.516Z,2.87
2022-08-04T22:17:02.654Z,2.83
2022-08-04T22:19:49.993Z,3.30
2022-08-04T22:22:25.717Z,3.40
2022-08-04T22:24:54.967Z,3.47
2022-08-04T22:27:38.040Z,3.20
2022-08-04T22:30:13.415Z,2.90
2022-08-04T22:32:46.534Z,2.73
2022-08-04T22:35:30.926Z,3.20
2022-08-04T22:38:07.709Z,3.23
2022-08-04T22:40:38.216Z,3.00
2022-08-04T22:43:32.676Z,3.40
2022-08-04T22:45:55.353Z,3.03
2022-08-04T22:48:23.657Z,3.23
2022-08-04T22:50:56.013Z,3.53
2022-08-04T22:53:24.184Z,2.70
2022-08-04T22:56:07.291Z,3.07
2022-08-04T23:01:16.171Z,3.43
2022-08-04T23:03:55.288Z,3.20
2022-08-04T23:06:25.038Z,3.03
2022-08-04T23:08:53.174Z,3.00
2022-08-04T23:11:21.677Z,3.10
2022-08-04T23:13:49.512Z,3.37
2022-08-04T23:16:19.796Z,3.73
2022-08-04T23:18:48.883Z,3.00
2022-08-04T23:21:17.602Z,3.07
2022-08-04T23:24:00.806Z,2.90
2022-08-04T23:26:30.646Z,2.67
2022-08-04T23:28:59.092Z,3.07
2022-08-04T23:31:41.172Z,3.50
2022-08-04T23:34:16.732Z,3.60
2022-08-04T23:36:47.349Z,3.90
2022-08-04T23:39:15.567Z,3.87
2022-08-04T23:41:55.460Z,3.60
2022-08-04T23:44:26.911Z,3.17
2022-08-04T23:47:01.330Z,2.90
2022-08-04T23:49:43.670Z,2.60
2022-08-04T23:52:23.538Z,3.10
2022-08-04T23:54:58.857Z,3.00
2022-08-04T23:58:02.309Z,3.10
